HK36E SLLP-SCDA
Flight info
| Callsign | HK36E |
|---|---|
| Flight time | 1h 10m |
| Altitude | 28000 |
| Route | USARU DCT DEVUR DCT LOBAG LOBAG5B |
| Aircraft | BE20/M-SDFGRWY/LB1 |
Departure
| Time | 2026-05-07 05:17 |
|---|---|
| Airport | El Alto International Airport (SLLP) |
Arrival
| Time | 2026-05-07 06:27 |
|---|---|
| Airport | Diego Aracena International Airport (SCDA) |
| Time | Latitude | Longitude | Altitude | Speed | Heading |
|---|---|---|---|---|---|
| 2026-05-07 05:06 | -16.50288 | -68.18051 | 13282 ft | 0 kts | 216° |
| 2026-05-07 05:09 | -16.50292 | -68.18052 | 13280 ft | 3 kts | 182° |
| 2026-05-07 05:09 | -16.50291 | -68.18026 | 13282 ft | 6 kts | 77° |
| 2026-05-07 05:10 | -16.50287 | -68.17965 | 13286 ft | 11 kts | 104° |
| 2026-05-07 05:10 | -16.50337 | -68.17890 | 13290 ft | 15 kts | 132° |
| 2026-05-07 05:10 | -16.50418 | -68.17795 | 13293 ft | 20 kts | 130° |
| 2026-05-07 05:10 | -16.50496 | -68.17714 | 13299 ft | 13 kts | 150° |
| 2026-05-07 05:11 | -16.50572 | -68.17735 | 13290 ft | 15 kts | 222° |
| 2026-05-07 05:11 | -16.50685 | -68.17841 | 13271 ft | 32 kts | 222° |
| 2026-05-07 05:11 | -16.50886 | -68.17959 | 13282 ft | 26 kts | 171° |
| 2026-05-07 05:11 | -16.50995 | -68.17876 | 13292 ft | 15 kts | 104° |
| 2026-05-07 05:12 | -16.50994 | -68.17818 | 13295 ft | 6 kts | 91° |
| 2026-05-07 05:12 | -16.50996 | -68.17771 | 13298 ft | 7 kts | 93° |
| 2026-05-07 05:12 | -16.51018 | -68.17715 | 13299 ft | 10 kts | 120° |
| 2026-05-07 05:12 | -16.51059 | -68.17642 | 13303 ft | 13 kts | 120° |
| 2026-05-07 05:13 | -16.51126 | -68.17555 | 13314 ft | 17 kts | 130° |
| 2026-05-07 05:13 | -16.51186 | -68.17482 | 13315 ft | 14 kts | 131° |
| 2026-05-07 05:13 | -16.51249 | -68.17406 | 13320 ft | 13 kts | 130° |
| 2026-05-07 05:13 | -16.51315 | -68.17362 | 13323 ft | 13 kts | 166° |
| 2026-05-07 05:14 | -16.51379 | -68.17363 | 13323 ft | 8 kts | 184° |
| 2026-05-07 05:14 | -16.51393 | -68.17382 | 13324 ft | 0 kts | 271° |
| 2026-05-07 05:15 | -16.51393 | -68.17392 | 13322 ft | 6 kts | 271° |
| 2026-05-07 05:16 | -16.51385 | -68.17626 | 13310 ft | 61 kts | 270° |
| 2026-05-07 05:16 | -16.51363 | -68.18258 | 13272 ft | 113 kts | 271° |
| 2026-05-07 05:16 | -16.51336 | -68.19214 | 13260 ft | 151 kts | 271° |
| 2026-05-07 05:16 | -16.51333 | -68.20392 | 13689 ft | 164 kts | 270° |
| 2026-05-07 05:17 | -16.51326 | -68.21574 | 14262 ft | 170 kts | 270° |
| 2026-05-07 05:17 | -16.51225 | -68.22879 | 14597 ft | 183 kts | 282° |
| 2026-05-07 05:17 | -16.50719 | -68.24072 | 15203 ft | 181 kts | 306° |
| 2026-05-07 05:17 | -16.49939 | -68.25116 | 15699 ft | 184 kts | 306° |
| 2026-05-07 05:18 | -16.49160 | -68.26182 | 16239 ft | 184 kts | 304° |
| 2026-05-07 05:18 | -16.48794 | -68.27419 | 16761 ft | 181 kts | 261° |
| 2026-05-07 05:18 | -16.49332 | -68.28555 | 17256 ft | 176 kts | 219° |
| 2026-05-07 05:18 | -16.50262 | -68.29397 | 17660 ft | 179 kts | 224° |
| 2026-05-07 05:19 | -16.51078 | -68.30388 | 18101 ft | 181 kts | 229° |
| 2026-05-07 05:19 | -16.51845 | -68.31422 | 18572 ft | 180 kts | 229° |
| 2026-05-07 05:19 | -16.52614 | -68.32464 | 18958 ft | 184 kts | 229° |
| 2026-05-07 05:19 | -16.53406 | -68.33532 | 19275 ft | 188 kts | 229° |
| 2026-05-07 05:20 | -16.54215 | -68.34619 | 19593 ft | 192 kts | 230° |
| 2026-05-07 05:20 | -16.55038 | -68.35727 | 19918 ft | 195 kts | 230° |
| 2026-05-07 05:20 | -16.55875 | -68.36853 | 20246 ft | 198 kts | 230° |
| 2026-05-07 05:20 | -16.56721 | -68.37992 | 20574 ft | 200 kts | 231° |
| 2026-05-07 05:21 | -16.57577 | -68.39144 | 20908 ft | 201 kts | 231° |
| 2026-05-07 05:21 | -16.59301 | -68.41466 | 21577 ft | 204 kts | 232° |
| 2026-05-07 05:21 | -16.60168 | -68.42635 | 21908 ft | 204 kts | 232° |
| 2026-05-07 05:22 | -16.61035 | -68.43802 | 22054 ft | 204 kts | 232° |
| 2026-05-07 05:22 | -16.61901 | -68.44968 | 22425 ft | 203 kts | 232° |
| 2026-05-07 05:22 | -16.62763 | -68.46131 | 22799 ft | 202 kts | 233° |
| 2026-05-07 05:22 | -16.63622 | -68.47287 | 23174 ft | 201 kts | 233° |
| 2026-05-07 05:23 | -16.64474 | -68.48436 | 23557 ft | 200 kts | 233° |
| 2026-05-07 05:23 | -16.65320 | -68.49576 | 23908 ft | 198 kts | 233° |
| 2026-05-07 05:23 | -16.66158 | -68.50707 | 24225 ft | 196 kts | 234° |
| 2026-05-07 05:23 | -16.66978 | -68.51812 | 24542 ft | 194 kts | 234° |
| 2026-05-07 05:24 | -16.67810 | -68.52934 | 24868 ft | 192 kts | 234° |
| 2026-05-07 05:24 | -16.68726 | -68.53891 | 25197 ft | 188 kts | 223° |
| 2026-05-07 05:24 | -16.69710 | -68.54765 | 25522 ft | 184 kts | 224° |
| 2026-05-07 05:24 | -16.70671 | -68.55630 | 25851 ft | 181 kts | 224° |
| 2026-05-07 05:25 | -16.71621 | -68.56484 | 26186 ft | 179 kts | 224° |
| 2026-05-07 05:25 | -16.72554 | -68.57323 | 26523 ft | 176 kts | 225° |
| 2026-05-07 05:25 | -16.73468 | -68.58143 | 26857 ft | 171 kts | 225° |
| 2026-05-07 05:25 | -16.74356 | -68.58941 | 27191 ft | 166 kts | 225° |
| 2026-05-07 05:26 | -16.75218 | -68.59716 | 27473 ft | 163 kts | 226° |
| 2026-05-07 05:26 | -16.76117 | -68.60529 | 27484 ft | 178 kts | 225° |
| 2026-05-07 05:26 | -16.77087 | -68.61405 | 27500 ft | 192 kts | 225° |
| 2026-05-07 05:26 | -16.78136 | -68.62348 | 27504 ft | 206 kts | 225° |
| 2026-05-07 05:27 | -16.79253 | -68.63352 | 27504 ft | 218 kts | 225° |
| 2026-05-07 05:27 | -16.80423 | -68.64403 | 27597 ft | 225 kts | 224° |
| 2026-05-07 05:27 | -16.81621 | -68.65479 | 27754 ft | 230 kts | 225° |
| 2026-05-07 05:27 | -16.82845 | -68.66581 | 27902 ft | 235 kts | 225° |
| 2026-05-07 05:28 | -16.84094 | -68.67705 | 28045 ft | 239 kts | 225° |
| 2026-05-07 05:28 | -16.85363 | -68.68847 | 28174 ft | 243 kts | 225° |
| 2026-05-07 05:28 | -16.86664 | -68.70019 | 28197 ft | 251 kts | 225° |
| 2026-05-07 05:28 | -16.88005 | -68.71228 | 28187 ft | 258 kts | 224° |
| 2026-05-07 05:29 | -16.89378 | -68.72464 | 28198 ft | 263 kts | 224° |
| 2026-05-07 05:29 | -16.90775 | -68.73722 | 28189 ft | 267 kts | 224° |
| 2026-05-07 05:29 | -16.92187 | -68.74994 | 28197 ft | 270 kts | 224° |
| 2026-05-07 05:29 | -16.93597 | -68.76264 | 28192 ft | 272 kts | 224° |
| 2026-05-07 05:30 | -16.95051 | -68.77576 | 28190 ft | 273 kts | 225° |
| 2026-05-07 05:30 | -16.96476 | -68.78860 | 28191 ft | 274 kts | 225° |
| 2026-05-07 05:30 | -16.97922 | -68.80164 | 28191 ft | 275 kts | 225° |
| 2026-05-07 05:30 | -16.99372 | -68.81472 | 28188 ft | 276 kts | 225° |
| 2026-05-07 05:31 | -17.00823 | -68.82781 | 28194 ft | 276 kts | 225° |
| 2026-05-07 05:31 | -17.02276 | -68.84093 | 28191 ft | 276 kts | 225° |
| 2026-05-07 05:31 | -17.03733 | -68.85407 | 28194 ft | 277 kts | 225° |
| 2026-05-07 05:31 | -17.05188 | -68.86722 | 28197 ft | 277 kts | 225° |
| 2026-05-07 05:32 | -17.06645 | -68.88037 | 28197 ft | 277 kts | 225° |
| 2026-05-07 05:32 | -17.08100 | -68.89351 | 28198 ft | 276 kts | 225° |
| 2026-05-07 05:32 | -17.09553 | -68.90664 | 28197 ft | 276 kts | 225° |
| 2026-05-07 05:32 | -17.11008 | -68.91978 | 28197 ft | 276 kts | 225° |
| 2026-05-07 05:33 | -17.12464 | -68.93295 | 28197 ft | 277 kts | 225° |
| 2026-05-07 05:33 | -17.13919 | -68.94610 | 28196 ft | 277 kts | 225° |
| 2026-05-07 05:33 | -17.15374 | -68.95925 | 28203 ft | 276 kts | 225° |
| 2026-05-07 05:33 | -17.16828 | -68.97240 | 28202 ft | 276 kts | 225° |
| 2026-05-07 05:34 | -17.18313 | -68.98516 | 28200 ft | 278 kts | 217° |
| 2026-05-07 05:34 | -17.19437 | -68.99168 | 28203 ft | 279 kts | 211° |
| 2026-05-07 05:34 | -17.21171 | -69.00092 | 28207 ft | 280 kts | 212° |
| 2026-05-07 05:34 | -17.22901 | -69.01025 | 28208 ft | 280 kts | 212° |
| 2026-05-07 05:35 | -17.24634 | -69.01962 | 28210 ft | 281 kts | 212° |
| 2026-05-07 05:35 | -17.26370 | -69.02899 | 28207 ft | 281 kts | 212° |
| 2026-05-07 05:35 | -17.28111 | -69.03837 | 28208 ft | 281 kts | 212° |
| 2026-05-07 05:35 | -17.29851 | -69.04774 | 28213 ft | 282 kts | 212° |
| 2026-05-07 05:36 | -17.31591 | -69.05714 | 28213 ft | 281 kts | 212° |
| 2026-05-07 05:36 | -17.33329 | -69.06651 | 28211 ft | 281 kts | 212° |
| 2026-05-07 05:36 | -17.35065 | -69.07588 | 28211 ft | 280 kts | 212° |
| 2026-05-07 05:36 | -17.36795 | -69.08522 | 28209 ft | 280 kts | 212° |
| 2026-05-07 05:37 | -17.38525 | -69.09456 | 28208 ft | 279 kts | 212° |
| 2026-05-07 05:37 | -17.40253 | -69.10389 | 28206 ft | 279 kts | 212° |
| 2026-05-07 05:37 | -17.41980 | -69.11322 | 28205 ft | 279 kts | 212° |
| 2026-05-07 05:37 | -17.43704 | -69.12254 | 28208 ft | 279 kts | 212° |
| 2026-05-07 05:38 | -17.45433 | -69.13189 | 28222 ft | 279 kts | 212° |
| 2026-05-07 05:38 | -17.47160 | -69.14121 | 28222 ft | 279 kts | 212° |
| 2026-05-07 05:38 | -17.48887 | -69.15055 | 28222 ft | 279 kts | 212° |
| 2026-05-07 05:38 | -17.50613 | -69.15989 | 28221 ft | 279 kts | 212° |
| 2026-05-07 05:39 | -17.52339 | -69.16923 | 28218 ft | 279 kts | 212° |
| 2026-05-07 05:39 | -17.54068 | -69.17857 | 28220 ft | 279 kts | 212° |
| 2026-05-07 05:39 | -17.55795 | -69.18792 | 28218 ft | 280 kts | 212° |
| 2026-05-07 05:39 | -17.57524 | -69.19728 | 28225 ft | 280 kts | 212° |
| 2026-05-07 05:40 | -17.59253 | -69.20664 | 28222 ft | 280 kts | 212° |
| 2026-05-07 05:40 | -17.60982 | -69.21599 | 28225 ft | 280 kts | 212° |
| 2026-05-07 05:40 | -17.62712 | -69.22537 | 28226 ft | 280 kts | 212° |
| 2026-05-07 05:40 | -17.64421 | -69.23462 | 28227 ft | 280 kts | 212° |
| 2026-05-07 05:41 | -17.66154 | -69.24401 | 28227 ft | 281 kts | 212° |
| 2026-05-07 05:41 | -17.67889 | -69.25342 | 28228 ft | 281 kts | 212° |
| 2026-05-07 05:41 | -17.69625 | -69.26283 | 28238 ft | 281 kts | 212° |
| 2026-05-07 05:41 | -17.71366 | -69.27226 | 28240 ft | 282 kts | 212° |
| 2026-05-07 05:42 | -17.73103 | -69.28169 | 28243 ft | 281 kts | 212° |
| 2026-05-07 05:42 | -17.74844 | -69.29113 | 28243 ft | 281 kts | 212° |
| 2026-05-07 05:42 | -17.76582 | -69.30056 | 28243 ft | 281 kts | 212° |
| 2026-05-07 05:42 | -17.78320 | -69.30999 | 28243 ft | 281 kts | 212° |
| 2026-05-07 05:43 | -17.80058 | -69.31942 | 28240 ft | 281 kts | 212° |
| 2026-05-07 05:43 | -17.81793 | -69.32884 | 28241 ft | 281 kts | 212° |
| 2026-05-07 05:43 | -17.83528 | -69.33826 | 28241 ft | 281 kts | 212° |
| 2026-05-07 05:43 | -17.85263 | -69.34768 | 28246 ft | 281 kts | 212° |
| 2026-05-07 05:44 | -17.86995 | -69.35709 | 28243 ft | 280 kts | 212° |
| 2026-05-07 05:44 | -17.88727 | -69.36650 | 28242 ft | 280 kts | 212° |
| 2026-05-07 05:44 | -17.90459 | -69.37592 | 28242 ft | 280 kts | 212° |
| 2026-05-07 05:44 | -17.92188 | -69.38531 | 28241 ft | 280 kts | 212° |
| 2026-05-07 05:45 | -17.93917 | -69.39472 | 28243 ft | 280 kts | 212° |
| 2026-05-07 05:45 | -17.95649 | -69.40413 | 28244 ft | 281 kts | 212° |
| 2026-05-07 05:45 | -17.97385 | -69.41358 | 28244 ft | 281 kts | 212° |
| 2026-05-07 05:45 | -17.99119 | -69.42301 | 28229 ft | 281 kts | 213° |
| 2026-05-07 05:46 | -18.00853 | -69.43244 | 28229 ft | 280 kts | 213° |
| 2026-05-07 05:46 | -18.02583 | -69.44186 | 28231 ft | 280 kts | 213° |
| 2026-05-07 05:46 | -18.04316 | -69.45129 | 28228 ft | 281 kts | 213° |
| 2026-05-07 05:46 | -18.06049 | -69.46073 | 28227 ft | 281 kts | 213° |
| 2026-05-07 05:47 | -18.07783 | -69.47018 | 28229 ft | 281 kts | 213° |
| 2026-05-07 05:47 | -18.09517 | -69.47959 | 28219 ft | 281 kts | 213° |
| 2026-05-07 05:47 | -18.11246 | -69.48905 | 28215 ft | 280 kts | 213° |
| 2026-05-07 05:47 | -18.12969 | -69.49845 | 28213 ft | 278 kts | 213° |
| 2026-05-07 05:48 | -18.14683 | -69.50778 | 28206 ft | 278 kts | 213° |
| 2026-05-07 05:48 | -18.16398 | -69.51713 | 28207 ft | 278 kts | 213° |
| 2026-05-07 05:48 | -18.18116 | -69.52651 | 28206 ft | 278 kts | 213° |
| 2026-05-07 05:48 | -18.19835 | -69.53589 | 28176 ft | 279 kts | 213° |
| 2026-05-07 05:49 | -18.21557 | -69.54528 | 28177 ft | 279 kts | 213° |
| 2026-05-07 05:49 | -18.23278 | -69.55467 | 28175 ft | 278 kts | 213° |
| 2026-05-07 05:49 | -18.24972 | -69.56391 | 28177 ft | 278 kts | 213° |
| 2026-05-07 05:49 | -18.26689 | -69.57329 | 28159 ft | 278 kts | 213° |
| 2026-05-07 05:50 | -18.28406 | -69.58268 | 28161 ft | 279 kts | 213° |
| 2026-05-07 05:50 | -18.30130 | -69.59209 | 28160 ft | 279 kts | 213° |
| 2026-05-07 05:50 | -18.31853 | -69.60150 | 28160 ft | 279 kts | 213° |
| 2026-05-07 05:50 | -18.33575 | -69.61091 | 28168 ft | 279 kts | 213° |
| 2026-05-07 05:51 | -18.35293 | -69.62031 | 28171 ft | 278 kts | 213° |
| 2026-05-07 05:51 | -18.37010 | -69.62969 | 28171 ft | 278 kts | 213° |
| 2026-05-07 05:51 | -18.38729 | -69.63909 | 28171 ft | 278 kts | 213° |
| 2026-05-07 05:51 | -18.40441 | -69.64846 | 28150 ft | 277 kts | 213° |
| 2026-05-07 05:52 | -18.42153 | -69.65782 | 28151 ft | 277 kts | 213° |
| 2026-05-07 05:52 | -18.43860 | -69.66717 | 28109 ft | 277 kts | 213° |
| 2026-05-07 05:52 | -18.45567 | -69.67651 | 28108 ft | 276 kts | 213° |
| 2026-05-07 05:52 | -18.47275 | -69.68586 | 28106 ft | 277 kts | 213° |
| 2026-05-07 05:53 | -18.48978 | -69.69521 | 28104 ft | 276 kts | 213° |
| 2026-05-07 05:53 | -18.50687 | -69.70455 | 28105 ft | 277 kts | 213° |
| 2026-05-07 05:53 | -18.52398 | -69.71392 | 28105 ft | 277 kts | 213° |
| 2026-05-07 05:53 | -18.54109 | -69.72330 | 28094 ft | 277 kts | 213° |
| 2026-05-07 05:54 | -18.55822 | -69.73270 | 28091 ft | 278 kts | 213° |
| 2026-05-07 05:54 | -18.57538 | -69.74210 | 28093 ft | 278 kts | 213° |
| 2026-05-07 05:54 | -18.59257 | -69.75152 | 28093 ft | 278 kts | 213° |
| 2026-05-07 05:54 | -18.60973 | -69.76094 | 28094 ft | 279 kts | 213° |
| 2026-05-07 05:55 | -18.62692 | -69.77037 | 28093 ft | 279 kts | 213° |
| 2026-05-07 05:55 | -18.64412 | -69.77980 | 28093 ft | 278 kts | 213° |
| 2026-05-07 05:55 | -18.66130 | -69.78923 | 28092 ft | 278 kts | 213° |
| 2026-05-07 05:55 | -18.67843 | -69.79864 | 27762 ft | 280 kts | 214° |
| 2026-05-07 05:56 | -18.69579 | -69.80819 | 27398 ft | 283 kts | 214° |
| 2026-05-07 05:56 | -18.71333 | -69.81782 | 27040 ft | 285 kts | 213° |
| 2026-05-07 05:56 | -18.73099 | -69.82752 | 26686 ft | 287 kts | 213° |
| 2026-05-07 05:56 | -18.74872 | -69.83725 | 26336 ft | 287 kts | 213° |
| 2026-05-07 05:57 | -18.76642 | -69.84698 | 25989 ft | 285 kts | 212° |
| 2026-05-07 05:57 | -18.78389 | -69.85657 | 25640 ft | 281 kts | 212° |
| 2026-05-07 05:57 | -18.80112 | -69.86604 | 25292 ft | 277 kts | 212° |
| 2026-05-07 05:57 | -18.81815 | -69.87542 | 24945 ft | 275 kts | 212° |
| 2026-05-07 05:58 | -18.83503 | -69.88471 | 24605 ft | 273 kts | 212° |
| 2026-05-07 05:58 | -18.85177 | -69.89392 | 24271 ft | 270 kts | 212° |
| 2026-05-07 05:58 | -18.86841 | -69.90308 | 23945 ft | 269 kts | 211° |
| 2026-05-07 05:58 | -18.88495 | -69.91219 | 23615 ft | 267 kts | 211° |
| 2026-05-07 05:59 | -18.90115 | -69.92110 | 23240 ft | 266 kts | 211° |
| 2026-05-07 05:59 | -18.91750 | -69.93011 | 22853 ft | 265 kts | 211° |
| 2026-05-07 05:59 | -18.93386 | -69.93913 | 22468 ft | 265 kts | 211° |
| 2026-05-07 05:59 | -18.95022 | -69.94815 | 22093 ft | 265 kts | 211° |
| 2026-05-07 06:00 | -18.96658 | -69.95716 | 21724 ft | 266 kts | 211° |
| 2026-05-07 06:00 | -18.98297 | -69.96620 | 21359 ft | 266 kts | 210° |
| 2026-05-07 06:00 | -18.99937 | -69.97524 | 21000 ft | 266 kts | 210° |
| 2026-05-07 06:00 | -19.01579 | -69.98429 | 20649 ft | 266 kts | 211° |
| 2026-05-07 06:01 | -19.03221 | -69.99335 | 20297 ft | 266 kts | 211° |
| 2026-05-07 06:01 | -19.04865 | -70.00242 | 19949 ft | 267 kts | 210° |
| 2026-05-07 06:01 | -19.06509 | -70.01150 | 19607 ft | 267 kts | 210° |
| 2026-05-07 06:01 | -19.08154 | -70.02058 | 19261 ft | 267 kts | 210° |
| 2026-05-07 06:02 | -19.09798 | -70.02965 | 19046 ft | 263 kts | 210° |
| 2026-05-07 06:02 | -19.11387 | -70.03841 | 19040 ft | 252 kts | 210° |
| 2026-05-07 06:02 | -19.12920 | -70.04687 | 19030 ft | 245 kts | 210° |
| 2026-05-07 06:02 | -19.14414 | -70.05514 | 19031 ft | 240 kts | 210° |
| 2026-05-07 06:03 | -19.15881 | -70.06325 | 19033 ft | 236 kts | 210° |
| 2026-05-07 06:03 | -19.17312 | -70.07116 | 19030 ft | 234 kts | 210° |
| 2026-05-07 06:03 | -19.18764 | -70.07919 | 19032 ft | 232 kts | 210° |
| 2026-05-07 06:03 | -19.20193 | -70.08709 | 19030 ft | 231 kts | 210° |
| 2026-05-07 06:04 | -19.21596 | -70.09485 | 19030 ft | 230 kts | 210° |
| 2026-05-07 06:04 | -19.23015 | -70.10270 | 19028 ft | 230 kts | 210° |
| 2026-05-07 06:04 | -19.24433 | -70.11054 | 19030 ft | 230 kts | 210° |
| 2026-05-07 06:04 | -19.25848 | -70.11838 | 19029 ft | 229 kts | 210° |
| 2026-05-07 06:05 | -19.27262 | -70.12620 | 19030 ft | 229 kts | 210° |
| 2026-05-07 06:05 | -19.28672 | -70.13400 | 19029 ft | 229 kts | 210° |
| 2026-05-07 06:05 | -19.30082 | -70.14181 | 19030 ft | 228 kts | 210° |
| 2026-05-07 06:05 | -19.31490 | -70.14961 | 19029 ft | 229 kts | 210° |
| 2026-05-07 06:06 | -19.32899 | -70.15742 | 19029 ft | 229 kts | 210° |
| 2026-05-07 06:06 | -19.34308 | -70.16523 | 19030 ft | 228 kts | 210° |
| 2026-05-07 06:06 | -19.35717 | -70.17303 | 19038 ft | 228 kts | 211° |
| 2026-05-07 06:06 | -19.37123 | -70.18083 | 19038 ft | 228 kts | 211° |
| 2026-05-07 06:07 | -19.38530 | -70.18862 | 19036 ft | 228 kts | 211° |
| 2026-05-07 06:07 | -19.39938 | -70.19643 | 19037 ft | 229 kts | 211° |
| 2026-05-07 06:07 | -19.41347 | -70.20425 | 19029 ft | 228 kts | 211° |
| 2026-05-07 06:07 | -19.42803 | -70.21093 | 19028 ft | 231 kts | 197° |
| 2026-05-07 06:08 | -19.44413 | -70.21250 | 19037 ft | 234 kts | 183° |
| 2026-05-07 06:08 | -19.46101 | -70.21238 | 19041 ft | 252 kts | 183° |
| 2026-05-07 06:08 | -19.47906 | -70.21228 | 19042 ft | 266 kts | 183° |
| 2026-05-07 06:08 | -19.49810 | -70.21219 | 18852 ft | 280 kts | 183° |
| 2026-05-07 06:09 | -19.51794 | -70.21209 | 18648 ft | 289 kts | 182° |
| 2026-05-07 06:09 | -19.53825 | -70.21197 | 18443 ft | 295 kts | 182° |
| 2026-05-07 06:09 | -19.55895 | -70.21186 | 18134 ft | 300 kts | 182° |
| 2026-05-07 06:09 | -19.57987 | -70.21176 | 17760 ft | 302 kts | 182° |
| 2026-05-07 06:10 | -19.60087 | -70.21166 | 17390 ft | 302 kts | 182° |
| 2026-05-07 06:10 | -19.62187 | -70.21155 | 17021 ft | 301 kts | 181° |
| 2026-05-07 06:10 | -19.64275 | -70.21145 | 16655 ft | 299 kts | 181° |
| 2026-05-07 06:10 | -19.66351 | -70.21134 | 16292 ft | 297 kts | 181° |
| 2026-05-07 06:11 | -19.68415 | -70.21124 | 15939 ft | 296 kts | 181° |
| 2026-05-07 06:11 | -19.70467 | -70.21114 | 15577 ft | 294 kts | 181° |
| 2026-05-07 06:11 | -19.72480 | -70.21104 | 15234 ft | 293 kts | 181° |
| 2026-05-07 06:11 | -19.74512 | -70.21094 | 14890 ft | 291 kts | 180° |
| 2026-05-07 06:12 | -19.76533 | -70.21084 | 14546 ft | 290 kts | 180° |
| 2026-05-07 06:12 | -19.78542 | -70.21075 | 14207 ft | 288 kts | 180° |
| 2026-05-07 06:12 | -19.80542 | -70.21065 | 13871 ft | 287 kts | 180° |
| 2026-05-07 06:12 | -19.82530 | -70.21055 | 13500 ft | 285 kts | 180° |
| 2026-05-07 06:13 | -19.84511 | -70.21045 | 13083 ft | 281 kts | 180° |
| 2026-05-07 06:13 | -19.86444 | -70.21035 | 12588 ft | 276 kts | 179° |
| 2026-05-07 06:13 | -19.88353 | -70.21026 | 12103 ft | 273 kts | 179° |
| 2026-05-07 06:13 | -19.90229 | -70.21017 | 11620 ft | 264 kts | 179° |
| 2026-05-07 06:14 | -19.92025 | -70.21008 | 11142 ft | 253 kts | 179° |
| 2026-05-07 06:14 | -19.93752 | -70.21000 | 10671 ft | 244 kts | 179° |
| 2026-05-07 06:14 | -19.95420 | -70.20964 | 10204 ft | 236 kts | 173° |
| 2026-05-07 06:14 | -19.96976 | -70.20517 | 9729 ft | 228 kts | 158° |
| 2026-05-07 06:15 | -19.98444 | -70.19913 | 9234 ft | 225 kts | 159° |
| 2026-05-07 06:15 | -19.99897 | -70.19322 | 8741 ft | 223 kts | 159° |
| 2026-05-07 06:15 | -20.01338 | -70.18737 | 8249 ft | 221 kts | 159° |
| 2026-05-07 06:15 | -20.02769 | -70.18155 | 7785 ft | 219 kts | 159° |
| 2026-05-07 06:16 | -20.04188 | -70.17578 | 7307 ft | 218 kts | 159° |
| 2026-05-07 06:16 | -20.05599 | -70.17003 | 6846 ft | 217 kts | 159° |
| 2026-05-07 06:16 | -20.07003 | -70.16431 | 6386 ft | 216 kts | 159° |
| 2026-05-07 06:16 | -20.08396 | -70.15869 | 6012 ft | 208 kts | 161° |
| 2026-05-07 06:17 | -20.09738 | -70.15641 | 5994 ft | 186 kts | 180° |
| 2026-05-07 06:17 | -20.10961 | -70.15722 | 5953 ft | 168 kts | 182° |
| 2026-05-07 06:17 | -20.12092 | -70.15793 | 5745 ft | 164 kts | 183° |
| 2026-05-07 06:17 | -20.13250 | -70.15869 | 5400 ft | 169 kts | 183° |
| 2026-05-07 06:18 | -20.14434 | -70.15948 | 5065 ft | 172 kts | 183° |
| 2026-05-07 06:18 | -20.15641 | -70.16030 | 4738 ft | 175 kts | 184° |
| 2026-05-07 06:18 | -20.16859 | -70.16113 | 4395 ft | 176 kts | 183° |
| 2026-05-07 06:18 | -20.18071 | -70.16195 | 4064 ft | 177 kts | 183° |
| 2026-05-07 06:19 | -20.19276 | -70.16277 | 3869 ft | 170 kts | 183° |
| 2026-05-07 06:19 | -20.20438 | -70.16355 | 3668 ft | 165 kts | 183° |
| 2026-05-07 06:19 | -20.21566 | -70.16422 | 3464 ft | 161 kts | 182° |
| 2026-05-07 06:19 | -20.22682 | -70.16478 | 3264 ft | 159 kts | 182° |
| 2026-05-07 06:20 | -20.23778 | -70.16536 | 3056 ft | 156 kts | 182° |
| 2026-05-07 06:20 | -20.24827 | -70.16592 | 2993 ft | 144 kts | 182° |
| 2026-05-07 06:20 | -20.25823 | -70.16643 | 2997 ft | 153 kts | 182° |
| 2026-05-07 06:20 | -20.26988 | -70.16694 | 3018 ft | 180 kts | 181° |
| 2026-05-07 06:21 | -20.28296 | -70.16768 | 3018 ft | 195 kts | 183° |
| 2026-05-07 06:21 | -20.29688 | -70.16841 | 3013 ft | 203 kts | 182° |
| 2026-05-07 06:21 | -20.31070 | -70.16912 | 3009 ft | 195 kts | 182° |
| 2026-05-07 06:21 | -20.32404 | -70.16984 | 3008 ft | 190 kts | 182° |
| 2026-05-07 06:22 | -20.33710 | -70.17054 | 3006 ft | 187 kts | 183° |
| 2026-05-07 06:22 | -20.36236 | -70.17190 | 2991 ft | 178 kts | 183° |
| 2026-05-07 06:22 | -20.37464 | -70.17256 | 2992 ft | 176 kts | 183° |
| 2026-05-07 06:23 | -20.38692 | -70.17322 | 2875 ft | 180 kts | 183° |
| 2026-05-07 06:23 | -20.39939 | -70.17390 | 2631 ft | 172 kts | 182° |
| 2026-05-07 06:23 | -20.41070 | -70.17451 | 2393 ft | 154 kts | 182° |
| 2026-05-07 06:23 | -20.42074 | -70.17506 | 2193 ft | 137 kts | 182° |
| 2026-05-07 06:24 | -20.42683 | -70.17539 | 2062 ft | 128 kts | 182° |
| 2026-05-07 06:24 | -20.43538 | -70.17586 | 1884 ft | 118 kts | 182° |
| 2026-05-07 06:24 | -20.44327 | -70.17629 | 1721 ft | 110 kts | 182° |
| 2026-05-07 06:24 | -20.45101 | -70.17670 | 1578 ft | 117 kts | 182° |
| 2026-05-07 06:25 | -20.45940 | -70.17715 | 1411 ft | 119 kts | 182° |
| 2026-05-07 06:25 | -20.46741 | -70.17758 | 1250 ft | 107 kts | 182° |
| 2026-05-07 06:25 | -20.47476 | -70.17797 | 1100 ft | 111 kts | 182° |
| 2026-05-07 06:25 | -20.48303 | -70.17842 | 932 ft | 124 kts | 181° |
| 2026-05-07 06:26 | -20.49146 | -70.17887 | 751 ft | 118 kts | 181° |
| 2026-05-07 06:26 | -20.49956 | -70.17931 | 580 ft | 115 kts | 181° |
| 2026-05-07 06:26 | -20.50743 | -70.17973 | 420 ft | 112 kts | 181° |
| 2026-05-07 06:26 | -20.51511 | -70.18015 | 259 ft | 108 kts | 181° |
| 2026-05-07 06:27 | -20.52209 | -70.18059 | 100 ft | 91 kts | 181° |
| 2026-05-07 06:27 | -20.52745 | -70.18088 | 108 ft | 64 kts | 184° |
| 2026-05-07 06:27 | -20.53123 | -70.18109 | 114 ft | 48 kts | 183° |
| 2026-05-07 06:27 | -20.53379 | -70.18123 | 120 ft | 24 kts | 184° |
| 2026-05-07 06:28 | -20.53512 | -70.18130 | 122 ft | 16 kts | 183° |
| 2026-05-07 06:28 | -20.53565 | -70.18084 | 121 ft | 10 kts | 93° |
| 2026-05-07 06:28 | -20.53567 | -70.18044 | 124 ft | 7 kts | 94° |
| 2026-05-07 06:28 | -20.53572 | -70.17978 | 124 ft | 10 kts | 108° |
| 2026-05-07 06:29 | -20.53662 | -70.17960 | 126 ft | 19 kts | 182° |
| 2026-05-07 06:29 | -20.53799 | -70.17967 | 127 ft | 16 kts | 184° |
| 2026-05-07 06:29 | -20.53931 | -70.17973 | 129 ft | 22 kts | 181° |
| 2026-05-07 06:29 | -20.54107 | -70.17983 | 134 ft | 24 kts | 184° |
| 2026-05-07 06:30 | -20.54247 | -70.17992 | 137 ft | 22 kts | 183° |
| 2026-05-07 06:30 | -20.54394 | -70.18000 | 140 ft | 20 kts | 182° |
| 2026-05-07 06:30 | -20.54517 | -70.18005 | 142 ft | 18 kts | 183° |
| 2026-05-07 06:30 | -20.54619 | -70.18013 | 144 ft | 10 kts | 184° |
| 2026-05-07 06:31 | -20.54678 | -70.17955 | 146 ft | 10 kts | 112° |
| 2026-05-07 06:31 | -20.54707 | -70.17923 | 146 ft | 10 kts | 212° |
| 2026-05-07 06:31 | -20.54763 | -70.17975 | 147 ft | 7 kts | 219° |
| 2026-05-07 06:31 | -20.54838 | -70.17973 | 149 ft | 17 kts | 134° |
| 2026-05-07 06:32 | -20.54884 | -70.17958 | 149 ft | 0 kts | 224° |